Time;durP1;ratioP1;P1;durP2;ratioP2;P2;SDS_P1;SDS_P2;PMS_P1;PMS_P2;Temp;Humidity;BMP_temperature;BMP_pressure;BME280_temperature;BME280_humidity;BME280_pressure;Samples;Min_cycle;Max_cycle;Signal;HPM_P1;HPM_P2
2021/01/25 00:00:46;;;;;;;3.58;1.70;;;15.30;99.90;;;;;;5011750;28;20034;-67
2021/01/25 00:03:12;;;;;;;3.42;1.50;;;15.20;99.90;;;;;;5012078;28;20018;-67
2021/01/25 00:05:37;;;;;;;3.22;1.40;;;15.20;99.90;;;;;;5011535;28;20359;-67
2021/01/25 00:08:04;;;;;;;2.50;1.50;;;15.20;99.90;;;;;;5011978;28;20101;-67
2021/01/25 00:10:29;;;;;;;3.10;1.35;;;15.10;99.90;;;;;;5011956;28;20029;-67
2021/01/25 00:12:55;;;;;;;2.60;1.50;;;15.10;99.90;;;;;;5011692;28;20021;-67
2021/01/25 00:15:21;;;;;;;1.98;1.42;;;15.10;99.90;;;;;;5011112;28;20057;-67
2021/01/25 00:17:46;;;;;;;3.22;1.52;;;15.10;99.90;;;;;;5011575;28;20037;-68
2021/01/25 00:20:13;;;;;;;5.03;1.75;;;15.00;99.90;;;;;;5010773;28;20057;-68
2021/01/25 00:22:39;;;;;;;2.78;1.42;;;15.00;99.90;;;;;;5011381;28;20050;-68
2021/01/25 00:25:05;;;;;;;2.55;1.35;;;15.00;99.90;;;;;;5011424;28;20045;-66
2021/01/25 00:27:30;;;;;;;3.15;1.50;;;15.00;99.90;;;;;;5011602;28;20034;-67
2021/01/25 00:29:56;;;;;;;2.25;1.48;;;14.90;99.90;;;;;;5010805;28;20458;-67
2021/01/25 00:32:22;;;;;;;4.05;1.70;;;14.90;99.90;;;;;;5011658;28;20111;-66
2021/01/25 00:34:47;;;;;;;3.75;1.55;;;14.90;99.90;;;;;;5010599;28;20030;-68
2021/01/25 00:37:13;;;;;;;1.58;1.15;;;14.90;99.90;;;;;;5011442;28;20030;-66
2021/01/25 00:39:38;;;;;;;2.58;1.35;;;14.90;99.90;;;;;;5011376;28;20104;-66
2021/01/25 00:42:04;;;;;;;2.70;1.33;;;14.90;99.90;;;;;;5011727;28;20033;-66
2021/01/25 00:44:30;;;;;;;4.15;1.40;;;14.80;99.90;;;;;;5011345;28;20026;-67
2021/01/25 00:46:55;;;;;;;4.15;1.65;;;14.80;99.90;;;;;;5011299;28;20022;-68
2021/01/25 00:49:21;;;;;;;2.35;1.25;;;14.80;99.90;;;;;;5011466;28;20533;-67
2021/01/25 00:51:46;;;;;;;2.33;1.50;;;14.80;99.90;;;;;;5011234;28;20080;-67
2021/01/25 00:54:12;;;;;;;2.80;1.30;;;14.70;99.90;;;;;;5011336;28;20116;-68
2021/01/25 00:56:38;;;;;;;2.47;1.50;;;14.70;99.90;;;;;;5011390;28;20029;-67
2021/01/25 00:59:04;;;;;;;2.00;1.27;;;14.70;99.90;;;;;;5011361;28;20113;-67
2021/01/25 01:01:29;;;;;;;2.67;1.45;;;14.70;99.90;;;;;;5011722;28;20073;-68
2021/01/25 01:03:55;;;;;;;3.25;1.60;;;14.70;99.90;;;;;;5010974;28;20030;-68
2021/01/25 01:06:21;;;;;;;2.67;1.58;;;14.70;99.90;;;;;;5011349;28;20041;-68
2021/01/25 01:08:46;;;;;;;6.10;1.50;;;14.70;99.90;;;;;;5011048;28;20169;-68
2021/01/25 01:11:12;;;;;;;2.60;1.50;;;14.70;99.90;;;;;;5011369;28;20034;-68
2021/01/25 01:13:38;;;;;;;2.90;1.45;;;14.70;99.90;;;;;;5010817;28;20115;-68
2021/01/25 01:16:04;;;;;;;2.70;1.40;;;14.70;99.90;;;;;;5011132;28;20025;-66
2021/01/25 01:18:30;;;;;;;3.65;1.65;;;14.70;99.90;;;;;;5011442;28;20117;-68
2021/01/25 01:20:55;;;;;;;2.30;1.35;;;14.60;99.90;;;;;;5010985;28;20104;-67
2021/01/25 01:23:21;;;;;;;2.97;1.52;;;14.60;99.90;;;;;;5011209;28;20038;-68
2021/01/25 01:25:47;;;;;;;3.03;1.42;;;14.60;99.90;;;;;;5010995;28;20447;-68
2021/01/25 01:28:12;;;;;;;2.55;1.58;;;14.60;99.90;;;;;;5011399;28;20037;-67
2021/01/25 01:30:38;;;;;;;3.30;1.50;;;14.60;99.90;;;;;;5010753;28;20029;-67
2021/01/25 01:33:03;;;;;;;3.80;1.40;;;14.60;99.90;;;;;;5011077;28;20109;-68
2021/01/25 01:35:29;;;;;;;2.92;1.48;;;14.60;99.90;;;;;;5011258;28;20153;-68
2021/01/25 01:37:55;;;;;;;2.35;1.45;;;14.60;99.90;;;;;;5010729;28;20501;-67
2021/01/25 01:40:20;;;;;;;1.95;1.40;;;14.50;99.90;;;;;;5012440;28;20026;-68
2021/01/25 01:42:46;;;;;;;3.38;1.30;;;14.50;99.90;;;;;;5014345;28;20034;-67
2021/01/25 01:45:12;;;;;;;4.22;1.30;;;14.50;99.90;;;;;;5013316;28;20026;-68
2021/01/25 01:47:41;;;;;;;2.60;1.52;;;14.50;99.90;;;;;;5013956;28;20037;-67
2021/01/25 01:50:08;;;;;;;1.75;1.20;;;14.40;99.90;;;;;;5014438;28;20030;-66
2021/01/25 01:52:34;;;;;;;3.22;1.30;;;14.40;99.90;;;;;;5014286;28;20025;-67
2021/01/25 01:55:01;;;;;;;2.55;1.40;;;14.40;99.90;;;;;;5014476;28;20110;-67
2021/01/25 01:57:32;;;;;;;2.90;1.65;;;14.40;99.90;;;;;;5013823;28;20034;-68
2021/01/25 01:59:58;;;;;;;3.33;1.30;;;14.40;99.90;;;;;;5014316;28;20050;-68
2021/01/25 02:02:23;;;;;;;3.20;1.20;;;14.40;99.90;;;;;;5013522;28;20144;-68
2021/01/25 02:04:49;;;;;;;1.85;1.30;;;14.40;99.90;;;;;;5013686;28;20037;-68
2021/01/25 02:07:16;;;;;;;3.25;1.55;;;14.40;99.90;;;;;;5013857;28;20030;-68
2021/01/25 02:09:46;;;;;;;2.80;1.60;;;14.40;99.90;;;;;;5014049;28;20064;-68
2021/01/25 02:12:12;;;;;;;2.50;1.23;;;14.30;99.90;;;;;;5013979;28;20034;-67
2021/01/25 02:14:39;;;;;;;3.25;1.40;;;14.30;99.90;;;;;;5013904;28;20014;-67
2021/01/25 02:17:06;;;;;;;2.58;1.58;;;14.30;99.90;;;;;;5013777;28;20426;-67
2021/01/25 02:20:06;;;;;;;2.45;1.17;;;14.30;99.90;;;;;;5014000;28;20041;-67
2021/01/25 02:22:38;;;;;;;3.55;1.35;;;14.30;99.90;;;;;;5013228;28;20021;-67
2021/01/25 02:25:17;;;;;;;1.98;1.30;;;14.30;99.90;;;;;;5013567;28;20030;-69
2021/01/25 02:27:44;;;;;;;2.53;1.40;;;14.30;99.90;;;;;;5013583;28;20413;-67
2021/01/25 02:30:15;;;;;;;2.60;1.17;;;14.30;99.90;;;;;;5013893;28;20033;-68
2021/01/25 02:32:41;;;;;;;2.63;1.23;;;14.30;99.90;;;;;;5013511;28;20478;-68
2021/01/25 02:35:15;;;;;;;4.43;1.33;;;14.30;99.90;;;;;;5013669;28;20042;-67
2021/01/25 02:37:41;;;;;;;1.77;1.13;;;14.30;99.90;;;;;;5013440;28;20059;-68
2021/01/25 02:40:10;;;;;;;2.08;1.30;;;14.30;99.90;;;;;;5013520;28;20049;-67
2021/01/25 02:42:37;;;;;;;4.75;1.35;;;14.20;99.90;;;;;;5013236;28;20030;-67
2021/01/25 02:45:05;;;;;;;2.40;1.20;;;14.20;99.90;;;;;;5013381;28;20109;-68
2021/01/25 02:47:32;;;;;;;2.90;1.33;;;14.20;99.90;;;;;;5013603;28;20057;-68
2021/01/25 02:49:58;;;;;;;1.80;1.20;;;14.20;99.90;;;;;;5013672;28;20022;-67
2021/01/25 02:52:23;;;;;;;2.03;1.30;;;14.30;99.90;;;;;;5012222;28;20521;-67
2021/01/25 02:54:49;;;;;;;2.10;1.33;;;14.20;99.90;;;;;;5013116;28;20374;-67
2021/01/25 02:57:16;;;;;;;3.15;1.23;;;14.20;99.90;;;;;;5013163;28;20050;-67
2021/01/25 02:59:42;;;;;;;1.60;1.20;;;14.20;99.90;;;;;;5012612;28;20022;-67
2021/01/25 03:02:09;;;;;;;1.67;0.88;;;14.20;99.90;;;;;;5013102;28;20117;-67
2021/01/25 03:04:36;;;;;;;1.83;1.30;;;14.20;99.90;;;;;;5012770;28;20037;-67
2021/01/25 03:07:03;;;;;;;2.42;1.35;;;14.20;99.90;;;;;;5013064;28;20022;-67
2021/01/25 03:09:29;;;;;;;1.50;1.10;;;14.20;99.90;;;;;;5013299;28;20036;-68
2021/01/25 03:12:00;;;;;;;2.75;1.20;;;14.10;99.90;;;;;;5012751;28;20022;-68
2021/01/25 03:14:26;;;;;;;2.47;1.05;;;14.10;99.90;;;;;;5012589;28;20060;-68
2021/01/25 03:16:51;;;;;;;1.88;1.30;;;14.10;99.90;;;;;;5012067;28;20065;-68
2021/01/25 03:19:17;;;;;;;2.45;1.10;;;14.10;99.90;;;;;;5012529;28;20108;-68
2021/01/25 03:21:47;;;;;;;1.88;1.25;;;14.10;99.90;;;;;;5011999;28;20048;-67
2021/01/25 03:24:13;;;;;;;2.22;1.20;;;14.10;99.90;;;;;;5011944;28;20056;-68
2021/01/25 03:26:39;;;;;;;1.83;1.08;;;14.10;99.90;;;;;;5012411;28;20403;-69
2021/01/25 03:29:05;;;;;;;2.53;1.23;;;14.10;99.90;;;;;;5012410;28;20137;-68
2021/01/25 03:31:30;;;;;;;1.50;1.00;;;14.10;99.90;;;;;;5012211;28;20026;-68
2021/01/25 03:33:56;;;;;;;2.15;1.30;;;14.10;99.90;;;;;;5011591;28;20033;-68
2021/01/25 03:36:21;;;;;;;2.40;1.40;;;14.10;99.90;;;;;;5012202;28;20042;-68
2021/01/25 03:38:47;;;;;;;1.67;1.00;;;14.10;99.90;;;;;;5011898;28;20045;-68
2021/01/25 03:41:13;;;;;;;2.17;1.00;;;14.00;99.90;;;;;;5011989;28;20535;-67
2021/01/25 03:43:38;;;;;;;3.00;1.55;;;14.00;99.90;;;;;;5012107;28;20109;-67
2021/01/25 03:46:04;;;;;;;1.83;1.20;;;14.00;99.90;;;;;;5011816;28;20022;-67
2021/01/25 03:48:29;;;;;;;2.58;1.40;;;14.00;99.90;;;;;;5012504;28;20470;-67
2021/01/25 03:50:55;;;;;;;2.60;1.20;;;14.00;99.90;;;;;;5011739;28;20073;-68
2021/01/25 03:53:20;;;;;;;1.58;1.00;;;14.00;99.90;;;;;;5012229;28;20029;-67
2021/01/25 03:55:46;;;;;;;2.45;1.10;;;14.00;99.90;;;;;;5011969;28;20479;-68
2021/01/25 03:58:12;;;;;;;1.98;1.00;;;14.00;99.90;;;;;;5012101;28;20070;-68
2021/01/25 04:00:37;;;;;;;3.88;1.20;;;14.00;99.90;;;;;;5011429;28;20022;-67
2021/01/25 04:03:03;;;;;;;1.48;1.17;;;14.00;99.90;;;;;;5011045;28;20030;-68
2021/01/25 04:05:29;;;;;;;1.63;0.90;;;14.00;99.90;;;;;;5011572;28;20038;-67
2021/01/25 04:07:54;;;;;;;4.43;0.98;;;14.00;99.90;;;;;;5011484;28;20029;-67
2021/01/25 04:10:20;;;;;;;2.05;1.25;;;14.00;99.90;;;;;;5011942;28;20095;-68
2021/01/25 04:12:46;;;;;;;6.95;1.13;;;14.00;99.90;;;;;;5011328;28;20042;-67
2021/01/25 04:15:11;;;;;;;1.40;1.02;;;14.00;99.90;;;;;;5011623;28;20434;-67
2021/01/25 04:17:37;;;;;;;1.83;1.17;;;14.00;99.90;;;;;;5011285;28;20087;-66
2021/01/25 04:20:07;;;;;;;2.03;1.20;;;13.90;99.90;;;;;;5012010;28;20084;-66
2021/01/25 04:22:33;;;;;;;1.23;0.98;;;13.90;99.90;;;;;;5011230;28;20057;-67
2021/01/25 04:24:58;;;;;;;1.25;0.95;;;13.90;99.90;;;;;;5011573;28;20033;-67
2021/01/25 04:27:24;;;;;;;1.27;0.90;;;13.90;99.90;;;;;;5011761;28;20022;-68
2021/01/25 04:29:49;;;;;;;1.55;1.02;;;13.90;99.90;;;;;;5011013;28;20474;-67
2021/01/25 04:32:15;;;;;;;1.77;1.15;;;13.90;99.90;;;;;;5011012;28;20117;-68
2021/01/25 04:34:41;;;;;;;2.00;1.02;;;13.90;99.90;;;;;;5011442;28;20108;-67
2021/01/25 04:37:08;;;;;;;1.83;1.13;;;13.90;99.90;;;;;;5011153;28;20046;-67
2021/01/25 04:39:33;;;;;;;1.85;1.10;;;13.90;99.90;;;;;;5011367;28;20030;-67
2021/01/25 04:41:59;;;;;;;1.92;1.05;;;13.90;99.90;;;;;;5011365;28;20141;-67
2021/01/25 04:44:25;;;;;;;1.80;0.95;;;13.90;99.90;;;;;;5011508;28;20029;-67
2021/01/25 04:46:53;;;;;;;1.38;0.80;;;13.90;99.90;;;;;;5011040;28;20367;-67
2021/01/25 04:49:19;;;;;;;2.00;1.13;;;13.90;99.90;;;;;;5011267;28;20036;-67
2021/01/25 04:51:46;;;;;;;1.27;1.10;;;13.90;99.90;;;;;;4998248;28;20034;-67
2021/01/25 04:54:14;;;;;;;1.40;0.90;;;13.90;99.90;;;;;;5011532;28;20057;-67
2021/01/25 04:56:40;;;;;;;1.05;0.90;;;13.90;99.90;;;;;;5011099;28;20034;-67
2021/01/25 04:59:06;;;;;;;1.67;0.98;;;13.90;99.90;;;;;;5010976;28;20120;-67
2021/01/25 05:01:32;;;;;;;1.95;1.00;;;13.90;99.90;;;;;;5010325;28;20097;-67
2021/01/25 05:03:58;;;;;;;3.53;1.30;;;13.90;99.90;;;;;;5011276;28;20033;-66
2021/01/25 05:06:23;;;;;;;1.50;1.05;;;13.90;99.90;;;;;;5011137;28;20025;-67
2021/01/25 05:08:49;;;;;;;1.67;1.00;;;13.90;99.90;;;;;;5011182;28;20498;-67
2021/01/25 05:11:19;;;;;;;1.80;1.10;;;13.90;99.90;;;;;;5011051;28;20478;-66
2021/01/25 05:13:45;;;;;;;2.03;0.90;;;13.80;99.90;;;;;;5010960;28;20033;-67
2021/01/25 05:16:21;;;;;;;1.50;1.08;;;13.90;99.90;;;;;;5013653;28;20096;-65
2021/01/25 05:18:54;;;;;;;1.45;1.10;;;13.80;99.90;;;;;;5014708;28;20038;-66
2021/01/25 05:21:33;;;;;;;2.22;1.02;;;13.90;99.90;;;;;;5014833;28;20010;-66
2021/01/25 05:24:07;;;;;;;4.80;1.38;;;13.90;99.90;;;;;;5015312;28;20034;-67
2021/01/25 05:26:34;;;;;;;1.00;0.90;;;13.90;99.90;;;;;;5014372;28;20021;-66
2021/01/25 05:29:01;;;;;;;1.15;0.95;;;13.90;99.90;;;;;;5015181;28;20030;-66
2021/01/25 05:31:27;;;;;;;1.60;1.10;;;13.90;99.90;;;;;;5013740;28;20029;-66
2021/01/25 05:33:53;;;;;;;1.52;1.10;;;13.90;99.90;;;;;;5014163;28;20390;-66
2021/01/25 05:36:20;;;;;;;1.42;0.90;;;13.90;99.90;;;;;;5014738;28;20026;-66
2021/01/25 05:38:50;;;;;;;3.20;1.05;;;13.90;99.90;;;;;;5014184;28;20030;-66
2021/01/25 05:41:17;;;;;;;1.88;1.10;;;13.90;99.90;;;;;;5014615;28;20030;-66
2021/01/25 05:43:43;;;;;;;1.27;1.10;;;13.90;99.90;;;;;;5014091;28;20026;-66
2021/01/25 05:46:14;;;;;;;2.17;1.30;;;13.90;99.90;;;;;;5014501;28;20390;-66
2021/01/25 05:48:40;;;;;;;3.03;1.20;;;13.80;99.90;;;;;;5013197;28;20103;-67
2021/01/25 05:51:18;;;;;;;4.40;1.05;;;13.80;99.90;;;;;;5014212;28;20033;-67
2021/01/25 05:53:46;;;;;;;1.38;1.02;;;13.80;99.90;;;;;;5013990;28;20040;-66
2021/01/25 05:56:14;;;;;;;1.17;1.02;;;13.80;99.90;;;;;;5014258;28;20018;-66
2021/01/25 05:58:40;;;;;;;1.55;1.17;;;13.80;99.90;;;;;;5014094;28;20042;-65
2021/01/25 06:01:07;;;;;;;2.70;1.48;;;13.80;99.90;;;;;;5013702;28;20018;-68
2021/01/25 06:03:37;;;;;;;1.65;1.23;;;13.80;99.90;;;;;;5013446;28;20034;-67
2021/01/25 06:06:12;;;;;;;4.20;1.30;;;13.80;99.90;;;;;;5014189;28;20116;-67
2021/01/25 06:08:52;;;;;;;2.97;1.25;;;13.90;99.90;;;;;;5013796;28;20045;-68
2021/01/25 06:11:38;;;;;;;1.92;1.52;;;13.90;99.90;;;;;;5014273;28;20527;-66
2021/01/25 06:14:13;;;;;;;1.27;1.05;;;13.90;99.90;;;;;;5014155;28;20025;-67
2021/01/25 06:16:46;;;;;;;3.13;1.30;;;13.90;99.90;;;;;;5013855;28;20018;-68
2021/01/25 06:19:11;;;;;;;3.35;1.70;;;13.90;99.90;;;;;;5014126;28;20501;-68
2021/01/25 06:21:40;;;;;;;2.70;1.50;;;13.90;99.90;;;;;;5013685;28;20116;-67
2021/01/25 06:24:08;;;;;;;3.67;1.52;;;13.90;99.90;;;;;;5014231;28;20069;-66
2021/01/25 06:26:35;;;;;;;1.80;1.48;;;13.90;99.90;;;;;;5012748;28;20029;-68
2021/01/25 06:29:06;;;;;;;3.10;1.30;;;13.90;99.90;;;;;;5014146;28;20026;-68
2021/01/25 06:31:39;;;;;;;2.15;1.40;;;13.90;99.90;;;;;;5013960;28;20168;-69
2021/01/25 06:34:10;;;;;;;1.70;1.60;;;14.00;99.90;;;;;;5013912;28;20030;-68
2021/01/25 06:36:38;;;;;;;1.85;1.40;;;14.00;99.90;;;;;;4994186;28;20418;-68
2021/01/25 06:39:05;;;;;;;1.52;1.30;;;14.00;99.90;;;;;;5000766;28;20482;-68
2021/01/25 06:41:42;;;;;;;2.97;1.42;;;14.00;99.90;;;;;;5013617;28;20593;-68
2021/01/25 06:44:11;;;;;;;3.33;1.50;;;14.10;99.90;;;;;;5013617;28;20030;-68
2021/01/25 06:46:39;;;;;;;2.83;1.60;;;14.00;99.90;;;;;;5013152;28;20032;-64
2021/01/25 06:49:07;;;;;;;3.35;1.40;;;14.10;99.90;;;;;;5013529;28;20076;-73
2021/01/25 06:51:42;;;;;;;1.98;1.13;;;14.30;99.90;;;;;;5013207;28;20026;-68
2021/01/25 06:54:11;;;;;;;1.50;1.10;;;14.30;99.90;;;;;;5013378;28;20486;-66
2021/01/25 06:56:55;;;;;;;2.67;1.30;;;14.50;99.90;;;;;;5013014;28;20029;-61
2021/01/25 06:59:22;;;;;;;2.72;1.50;;;14.70;99.90;;;;;;5013209;28;20030;-63
2021/01/25 07:01:55;;;;;;;1.60;1.33;;;14.80;99.90;;;;;;5012746;28;20030;-63
2021/01/25 07:04:23;;;;;;;10.13;2.25;;;14.90;99.90;;;;;;5012724;28;20034;-61
2021/01/25 07:06:50;;;;;;;7.10;2.88;;;15.00;99.90;;;;;;5012948;28;20014;-69
2021/01/25 07:09:32;;;;;;;4.50;3.00;;;14.90;99.90;;;;;;5013191;28;20378;-72
2021/01/25 07:12:04;;;;;;;3.22;2.15;;;15.00;99.90;;;;;;5013409;28;20053;-71
2021/01/25 07:14:31;;;;;;;6.55;2.53;;;15.30;99.90;;;;;;5013049;28;20025;-69
2021/01/25 07:16:58;;;;;;;6.88;2.90;;;15.40;99.90;;;;;;5012862;28;20030;-67
2021/01/25 07:19:25;;;;;;;4.45;2.75;;;15.40;99.90;;;;;;5012845;28;20099;-70
2021/01/25 07:21:52;;;;;;;4.72;3.17;;;15.40;99.90;;;;;;5012551;28;20548;-67
2021/01/25 07:24:23;;;;;;;4.60;2.97;;;15.40;99.90;;;;;;5012533;28;20041;-71
2021/01/25 07:26:54;;;;;;;4.78;2.65;;;15.40;99.90;;;;;;5012627;28;20026;-70
2021/01/25 07:29:20;;;;;;;3.47;2.97;;;15.40;99.90;;;;;;5012687;28;20018;-71
2021/01/25 07:31:46;;;;;;;4.15;3.20;;;15.30;99.90;;;;;;5012627;28;20026;-71
2021/01/25 07:34:12;;;;;;;4.60;3.40;;;15.30;99.90;;;;;;5012561;28;20490;-70
2021/01/25 07:36:38;;;;;;;5.82;3.28;;;15.30;99.90;;;;;;5012467;28;20029;-71
2021/01/25 07:39:08;;;;;;;11.25;8.40;;;15.30;99.90;;;;;;5011921;28;20041;-67
2021/01/25 07:41:35;;;;;;;15.90;10.85;;;14.90;99.90;;;;;;5012193;28;20026;-68
2021/01/25 07:44:01;;;;;;;11.23;10.02;;;14.30;99.90;;;;;;5012222;28;20036;-71
2021/01/25 07:46:27;;;;;;;9.85;8.85;;;14.10;99.90;;;;;;5012704;28;20466;-63
2021/01/25 07:48:54;;;;;;;8.95;7.20;;;14.30;99.90;;;;;;5011877;28;20117;-62
2021/01/25 07:51:25;;;;;;;7.60;6.38;;;14.50;99.90;;;;;;5011991;28;20029;-75
2021/01/25 07:53:52;;;;;;;6.93;5.35;;;14.70;99.90;;;;;;5011258;28;20075;-73
2021/01/25 07:56:19;;;;;;;5.45;4.45;;;14.90;99.90;;;;;;5011751;28;20233;-72
2021/01/25 07:58:45;;;;;;;5.93;4.43;;;15.10;99.90;;;;;;5011456;28;20038;-72
2021/01/25 08:01:22;;;;;;;6.82;4.35;;;15.20;99.90;;;;;;5010854;28;20025;-76
2021/01/25 08:03:53;;;;;;;4.88;3.80;;;15.30;99.90;;;;;;5010105;28;20160;-76
2021/01/25 08:06:19;;;;;;;4.72;3.70;;;15.30;99.90;;;;;;5011680;28;20025;-76
2021/01/25 08:08:47;;;;;;;5.93;3.90;;;15.40;99.90;;;;;;5011669;28;20033;-79
2021/01/25 08:11:13;;;;;;;5.35;3.78;;;15.40;99.90;;;;;;5012037;28;20030;-78
2021/01/25 08:13:58;;;;;;;6.18;3.60;;;15.50;99.90;;;;;;5011572;28;20097;-72
2021/01/25 08:16:27;;;;;;;4.00;3.25;;;15.50;99.90;;;;;;5009659;28;20057;-64
2021/01/25 08:19:00;;;;;;;4.47;3.45;;;15.50;99.90;;;;;;5011116;28;20367;-65
2021/01/25 08:21:31;;;;;;;6.38;3.22;;;15.60;99.90;;;;;;5011457;28;20524;-65
2021/01/25 08:24:01;;;;;;;3.85;2.92;;;15.70;99.90;;;;;;5011001;28;20042;-66
2021/01/25 08:26:28;;;;;;;4.13;3.03;;;15.90;99.90;;;;;;5012416;28;20029;-65
2021/01/25 08:29:02;;;;;;;3.67;2.70;;;16.00;99.90;;;;;;5011447;28;20026;-62
2021/01/25 08:31:37;;;;;;;4.68;3.20;;;16.10;99.90;;;;;;5011516;28;20056;-67
2021/01/25 08:34:24;;;;;;;3.67;3.03;;;16.10;99.90;;;;;;5011199;28;20037;-65
2021/01/25 08:37:00;;;;;;;3.78;2.60;;;16.30;99.90;;;;;;5011644;28;20030;-73
2021/01/25 08:39:34;;;;;;;3.67;2.67;;;16.50;99.90;;;;;;5011768;28;20038;-73
2021/01/25 08:42:01;;;;;;;3.58;2.30;;;16.60;99.90;;;;;;5011265;28;20064;-77
2021/01/25 08:44:27;;;;;;;3.42;2.58;;;16.70;99.90;;;;;;5010906;28;20105;-76
2021/01/25 08:46:53;;;;;;;2.78;2.20;;;16.80;99.90;;;;;;5011353;28;20075;-74
2021/01/25 08:49:18;;;;;;;2.25;2.05;;;16.90;99.90;;;;;;5003627;28;20057;-75
2021/01/25 08:52:39;;;;;;;3.60;2.50;;;17.00;99.80;;;;;;5014964;28;20458;-74
2021/01/25 08:55:06;;;;;;;2.60;1.80;;;17.10;99.40;;;;;;4998912;28;20088;-78
2021/01/25 08:57:38;;;;;;;2.20;1.88;;;17.20;99.70;;;;;;5015070;28;20034;-66
2021/01/25 09:00:32;;;;;;;3.40;2.17;;;17.30;99.70;;;;;;5015560;28;20084;-73
2021/01/25 09:03:03;;;;;;;2.75;2.10;;;17.40;99.40;;;;;;5015652;28;20034;-74
2021/01/25 09:05:29;;;;;;;3.58;2.00;;;17.50;99.60;;;;;;5015742;28;20038;-73
2021/01/25 09:07:55;;;;;;;2.63;2.30;;;17.50;99.60;;;;;;5013621;28;20029;-76
2021/01/25 09:10:21;;;;;;;3.15;2.10;;;17.60;99.30;;;;;;5015012;28;20386;-72
2021/01/25 09:12:46;;;;;;;2.63;2.13;;;17.70;99.20;;;;;;5014795;28;20501;-74
2021/01/25 09:15:13;;;;;;;2.30;2.10;;;17.70;99.20;;;;;;5014856;28;20062;-74
2021/01/25 09:17:39;;;;;;;2.35;2.15;;;17.80;99.20;;;;;;5014553;28;20052;-72
2021/01/25 09:20:07;;;;;;;2.70;2.00;;;17.80;98.90;;;;;;5013593;28;20117;-67
2021/01/25 09:22:32;;;;;;;2.40;2.13;;;17.90;99.10;;;;;;5014888;28;20392;-69
2021/01/25 09:24:59;;;;;;;3.00;2.00;;;17.90;99.10;;;;;;5015394;28;20026;-75
2021/01/25 09:27:25;;;;;;;2.78;1.98;;;18.00;98.90;;;;;;5014929;28;20026;-75
2021/01/25 09:29:51;;;;;;;2.88;2.05;;;18.10;99.00;;;;;;5014611;28;20054;-70
2021/01/25 09:32:17;;;;;;;2.67;1.88;;;18.20;98.80;;;;;;5014860;28;20505;-74
2021/01/25 09:34:42;;;;;;;3.20;2.30;;;18.20;98.80;;;;;;5014623;28;20026;-73
2021/01/25 09:37:09;;;;;;;2.42;1.80;;;18.30;98.60;;;;;;5014738;28;20399;-77
2021/01/25 09:39:36;;;;;;;2.10;1.90;;;18.30;98.40;;;;;;5014196;28;20493;-78
2021/01/25 09:42:03;;;;;;;2.38;1.85;;;18.40;98.20;;;;;;5014912;28;20034;-70
2021/01/25 09:44:29;;;;;;;4.10;1.90;;;18.50;98.50;;;;;;5015011;28;20030;-74
2021/01/25 09:46:56;;;;;;;2.40;1.75;;;18.60;98.10;;;;;;5014607;28;20028;-74
2021/01/25 09:49:22;;;;;;;3.05;1.88;;;18.60;98.00;;;;;;5013818;28;20108;-75
2021/01/25 09:51:48;;;;;;;3.75;2.10;;;18.70;98.80;;;;;;5014403;28;20120;-71
2021/01/25 09:54:14;;;;;;;2.13;1.58;;;18.70;98.10;;;;;;5014605;28;20032;-69
2021/01/25 09:56:39;;;;;;;2.60;1.80;;;18.80;98.40;;;;;;5013873;28;20034;-72
2021/01/25 09:59:05;;;;;;;1.92;1.52;;;18.90;98.20;;;;;;5014043;28;20042;-70
2021/01/25 10:01:30;;;;;;;3.35;1.85;;;18.90;98.20;;;;;;5013341;28;20032;-72
2021/01/25 10:03:56;;;;;;;3.83;1.58;;;19.00;98.40;;;;;;5013502;28;20506;-69
2021/01/25 10:06:22;;;;;;;2.15;1.55;;;19.00;98.20;;;;;;5014323;28;20029;-67
2021/01/25 10:08:48;;;;;;;3.05;1.50;;;19.10;98.30;;;;;;5014047;28;20022;-71
2021/01/25 10:11:15;;;;;;;2.00;1.65;;;19.20;98.00;;;;;;5014190;28;20049;-72
2021/01/25 10:13:41;;;;;;;1.70;1.40;;;19.20;98.10;;;;;;5013849;28;20450;-73
2021/01/25 10:16:06;;;;;;;1.85;1.23;;;19.30;97.90;;;;;;5013969;28;20026;-70
2021/01/25 10:18:32;;;;;;;2.42;1.60;;;19.30;97.70;;;;;;5013836;28;20041;-66
2021/01/25 10:20:58;;;;;;;2.75;1.80;;;19.40;97.60;;;;;;5014525;28;20030;-70
2021/01/25 10:23:25;;;;;;;2.45;1.63;;;19.50;97.70;;;;;;5013738;28;20147;-63
2021/01/25 10:25:51;;;;;;;1.80;1.35;;;19.60;97.70;;;;;;5013745;28;20021;-66
2021/01/25 10:28:18;;;;;;;1.38;1.27;;;19.60;97.50;;;;;;5013028;28;20069;-67
2021/01/25 10:30:45;;;;;;;3.97;1.52;;;19.60;97.60;;;;;;5013671;28;20045;-68
2021/01/25 10:33:10;;;;;;;3.25;1.65;;;19.70;99.10;;;;;;5013887;28;20415;-70
2021/01/25 10:35:36;;;;;;;2.22;1.40;;;19.80;98.30;;;;;;5013271;28;20033;-68
2021/01/25 10:38:02;;;;;;;1.83;1.52;;;19.80;97.60;;;;;;5013609;28;20398;-69
2021/01/25 10:40:28;;;;;;;1.58;1.30;;;19.90;97.40;;;;;;5012232;28;20105;-71
2021/01/25 10:42:55;;;;;;;1.48;1.27;;;19.90;97.30;;;;;;5008638;28;20048;-69
2021/01/25 10:45:21;;;;;;;3.15;1.63;;;20.00;97.30;;;;;;4993824;28;20019;-69
2021/01/25 10:47:47;;;;;;;1.50;1.30;;;20.10;97.60;;;;;;4993737;28;20152;-72
2021/01/25 10:50:13;;;;;;;2.00;1.60;;;20.10;97.50;;;;;;4993970;28;20101;-70
2021/01/25 10:52:39;;;;;;;3.92;1.70;;;20.20;97.60;;;;;;4996627;28;20107;-69
2021/01/25 10:55:06;;;;;;;1.35;1.20;;;20.20;97.30;;;;;;4994593;28;20475;-67
2021/01/25 10:57:33;;;;;;;3.15;1.40;;;20.30;97.10;;;;;;5010662;28;20042;-64
2021/01/25 11:00:09;;;;;;;2.20;1.50;;;20.40;96.90;;;;;;5000584;28;20030;-68
2021/01/25 11:02:35;;;;;;;1.58;1.38;;;20.40;96.90;;;;;;5011883;28;20029;-63
2021/01/25 11:05:03;;;;;;;2.70;1.35;;;20.40;96.70;;;;;;5013479;28;20050;-70
2021/01/25 11:07:29;;;;;;;3.70;1.27;;;20.30;97.50;;;;;;5012097;28;20037;-72
2021/01/25 11:09:55;;;;;;;1.85;1.10;;;20.30;97.00;;;;;;5011395;28;20029;-71
2021/01/25 11:12:21;;;;;;;3.25;1.42;;;20.30;96.70;;;;;;5010890;28;20022;-72
2021/01/25 11:14:46;;;;;;;1.80;1.30;;;20.30;96.50;;;;;;5011448;28;20479;-73
2021/01/25 11:17:12;;;;;;;2.03;1.25;;;20.20;96.50;;;;;;5011458;28;20022;-62
2021/01/25 11:19:39;;;;;;;2.17;1.40;;;20.10;96.70;;;;;;5010728;28;20095;-68
2021/01/25 11:22:04;;;;;;;1.75;1.10;;;20.00;96.60;;;;;;5004672;28;20022;-65
2021/01/25 11:24:30;;;;;;;1.98;1.30;;;19.90;96.70;;;;;;5010903;28;20113;-67
2021/01/25 11:26:57;;;;;;;1.95;1.70;;;19.90;96.90;;;;;;5011472;28;20041;-68
2021/01/25 11:29:25;;;;;;;2.05;1.40;;;19.80;96.70;;;;;;5011232;28;20021;-69
2021/01/25 11:31:50;;;;;;;1.85;1.48;;;19.70;97.10;;;;;;5011198;28;20018;-72
2021/01/25 11:34:16;;;;;;;1.85;1.50;;;19.70;96.80;;;;;;5011264;28;20092;-70
2021/01/25 11:36:42;;;;;;;2.08;1.40;;;19.70;96.90;;;;;;5008468;28;20025;-70
2021/01/25 11:39:07;;;;;;;2.60;1.48;;;19.60;96.80;;;;;;5010887;28;20046;-70
2021/01/25 11:41:33;;;;;;;1.30;1.20;;;19.60;97.00;;;;;;5010857;28;20022;-71
2021/01/25 11:43:59;;;;;;;2.30;1.30;;;19.50;96.90;;;;;;5011802;28;20026;-69
2021/01/25 11:46:25;;;;;;;2.40;1.48;;;19.40;96.80;;;;;;5012436;28;20040;-73
2021/01/25 11:48:50;;;;;;;4.28;1.50;;;19.40;96.80;;;;;;5010290;28;20520;-67
2021/01/25 11:51:16;;;;;;;3.17;1.60;;;19.30;97.10;;;;;;5012478;28;20048;-66
2021/01/25 11:53:41;;;;;;;3.38;1.90;;;19.30;96.80;;;;;;5012148;28;20415;-73
2021/01/25 11:56:07;;;;;;;3.88;1.65;;;19.20;96.90;;;;;;5012259;28;20033;-70
2021/01/25 11:58:33;;;;;;;12.73;2.47;;;19.20;97.20;;;;;;5011804;28;20117;-65
2021/01/25 12:00:58;;;;;;;10.30;2.50;;;19.20;97.60;;;;;;5000372;28;20031;-65
2021/01/25 12:03:24;;;;;;;14.18;2.70;;;19.20;98.10;;;;;;4992549;28;20040;-70
2021/01/25 12:05:50;;;;;;;7.38;2.28;;;19.10;98.10;;;;;;4992271;28;20168;-71
2021/01/25 12:08:15;;;;;;;22.80;2.88;;;19.00;98.00;;;;;;5003309;28;20022;-66
2021/01/25 12:10:45;;;;;;;14.77;2.85;;;18.90;98.30;;;;;;5011217;28;20395;-66
2021/01/25 12:13:10;;;;;;;15.73;3.17;;;18.90;98.20;;;;;;5011451;28;20026;-68
2021/01/25 12:15:36;;;;;;;21.17;3.30;;;18.80;98.20;;;;;;5011881;28;20434;-70
2021/01/25 12:18:02;;;;;;;18.63;3.67;;;18.70;98.20;;;;;;5010219;28;20037;-70
2021/01/25 12:20:28;;;;;;;25.33;3.15;;;18.60;98.30;;;;;;5003335;28;20026;-69
2021/01/25 12:22:53;;;;;;;18.00;3.00;;;18.60;98.30;;;;;;5011805;28;20462;-68
2021/01/25 12:25:19;;;;;;;21.65;3.75;;;18.60;98.40;;;;;;5011031;28;20025;-68
2021/01/25 12:27:44;;;;;;;22.73;3.83;;;18.50;98.50;;;;;;5011448;28;20026;-69
2021/01/25 12:30:14;;;;;;;16.15;3.40;;;18.50;98.60;;;;;;5010939;28;20036;-68
2021/01/25 12:32:40;;;;;;;25.75;4.25;;;18.40;98.60;;;;;;5011729;28;20084;-68
2021/01/25 12:35:07;;;;;;;26.05;4.13;;;18.30;98.70;;;;;;5011309;28;20045;-67
2021/01/25 12:37:32;;;;;;;21.95;3.88;;;18.40;98.80;;;;;;5004277;28;20022;-67
2021/01/25 12:39:58;;;;;;;22.00;3.78;;;18.30;98.80;;;;;;4992324;28;20037;-68
2021/01/25 12:42:23;;;;;;;22.13;3.35;;;18.20;98.90;;;;;;4992095;28;20030;-67
2021/01/25 12:44:49;;;;;;;21.92;4.10;;;18.20;98.90;;;;;;4991900;28;20018;-67
2021/01/25 12:47:14;;;;;;;20.33;3.78;;;18.20;99.00;;;;;;4998068;28;20422;-67